createdAt,value
2022-11-24T00:01:15.040Z,36.58
2022-11-24T00:03:47.023Z,26.10
2022-11-24T00:06:15.768Z,26.05
2022-11-24T00:08:45.480Z,26.85
2022-11-24T00:11:35.235Z,24.85
2022-11-24T00:14:03.947Z,25.92
2022-11-24T00:16:37.081Z,23.48
2022-11-24T00:19:11.396Z,26.25
2022-11-24T00:21:39.893Z,26.63
2022-11-24T00:24:07.249Z,26.45
2022-11-24T00:26:36.925Z,20.40
2022-11-24T00:29:07.221Z,21.35
2022-11-24T00:31:38.149Z,18.30
2022-11-24T00:34:12.818Z,19.02
2022-11-24T00:36:41.019Z,21.58
2022-11-24T00:39:13.298Z,22.58
2022-11-24T00:41:41.645Z,25.02
2022-11-24T00:44:08.875Z,25.55
2022-11-24T00:46:36.320Z,15.95
2022-11-24T00:49:04.176Z,25.33
2022-11-24T00:51:31.680Z,20.30
2022-11-24T00:54:00.712Z,22.25
2022-11-24T00:56:29.108Z,29.70
2022-11-24T00:58:56.640Z,23.33
2022-11-24T01:01:27.368Z,29.05
2022-11-24T01:03:55.292Z,24.08
2022-11-24T01:06:27.966Z,18.80
2022-11-24T01:08:56.992Z,24.02
2022-11-24T01:11:26.596Z,22.55
2022-11-24T01:13:57.422Z,21.73
2022-11-24T01:16:31.052Z,18.60
2022-11-24T01:18:58.362Z,17.27
2022-11-24T01:21:25.704Z,16.27
2022-11-24T01:23:52.930Z,19.42
2022-11-24T01:26:22.417Z,14.18
2022-11-24T01:31:26.736Z,15.38
2022-11-24T01:33:54.396Z,14.27
2022-11-24T01:36:22.054Z,19.17
2022-11-24T01:38:49.347Z,17.30
2022-11-24T01:41:25.013Z,17.20
2022-11-24T01:43:54.700Z,12.32
2022-11-24T01:46:36.541Z,16.65
2022-11-24T01:49:40.183Z,14.38
2022-11-24T01:52:18.488Z,16.98
2022-11-24T01:54:52.808Z,18.30
2022-11-24T01:57:28.652Z,16.23
2022-11-24T02:00:07.154Z,18.10
2022-11-24T02:02:44.915Z,15.40
2022-11-24T02:05:35.862Z,19.98
2022-11-24T02:08:03.588Z,18.38
2022-11-24T02:10:30.939Z,16.33
2022-11-24T02:13:00.109Z,24.48
2022-11-24T02:15:28.021Z,14.52
2022-11-24T02:17:55.199Z,14.82
2022-11-24T02:20:22.457Z,22.42
2022-11-24T02:23:18.688Z,21.63
2022-11-24T02:26:04.963Z,31.40
2022-11-24T02:28:32.434Z,24.88
2022-11-24T02:31:01.114Z,25.95
2022-11-24T02:33:29.251Z,28.23
2022-11-24T02:35:56.700Z,35.47
2022-11-24T02:38:32.515Z,46.53
2022-11-24T02:41:05.246Z,31.30
2022-11-24T02:43:42.110Z,34.13
2022-11-24T02:46:10.303Z,36.40
2022-11-24T02:48:38.669Z,23.63
2022-11-24T02:51:05.982Z,23.77
2022-11-24T02:53:33.320Z,22.45
2022-11-24T02:56:00.592Z,22.98
2022-11-24T02:58:27.858Z,40.30
2022-11-24T03:00:56.690Z,42.03
2022-11-24T03:03:24.665Z,54.60
2022-11-24T03:05:51.953Z,23.17
2022-11-24T03:08:19.758Z,24.52
2022-11-24T03:10:47.001Z,20.65
2022-11-24T03:13:14.297Z,18.85
2022-11-24T03:15:41.488Z,23.75
2022-11-24T03:18:08.842Z,30.98
2022-11-24T03:20:36.012Z,22.50
2022-11-24T03:23:03.198Z,21.85
2022-11-24T03:25:30.444Z,23.83
2022-11-24T03:27:57.826Z,22.73
2022-11-24T03:30:25.409Z,19.70
2022-11-24T03:32:53.310Z,21.48
2022-11-24T03:35:21.735Z,26.77
2022-11-24T03:37:49.181Z,23.08
2022-11-24T03:40:17.498Z,25.52
2022-11-24T03:42:44.712Z,29.42
2022-11-24T03:45:37.830Z,28.73
2022-11-24T03:47:59.010Z,19.45
2022-11-24T03:50:26.202Z,20.40
2022-11-24T03:52:53.344Z,21.05
2022-11-24T03:55:20.509Z,15.18
2022-11-24T03:57:47.726Z,18.70
2022-11-24T04:00:15.812Z,14.75
2022-11-24T04:02:43.126Z,20.23
2022-11-24T04:05:10.435Z,17.83
2022-11-24T04:07:37.777Z,16.67
2022-11-24T04:10:06.555Z,15.98
2022-11-24T04:12:45.982Z,12.50
2022-11-24T04:15:17.886Z,16.70
2022-11-24T04:17:47.429Z,11.90
2022-11-24T04:20:15.978Z,10.15
2022-11-24T04:22:43.518Z,9.10
2022-11-24T04:25:11.131Z,10.05
2022-11-24T04:27:38.716Z,10.60
2022-11-24T04:30:07.432Z,11.93
2022-11-24T04:32:34.982Z,10.50
2022-11-24T04:35:03.553Z,9.18
2022-11-24T04:37:30.896Z,8.90
2022-11-24T04:39:58.139Z,11.50
2022-11-24T04:42:25.367Z,14.38
2022-11-24T04:44:52.528Z,16.08
2022-11-24T04:47:24.888Z,16.83
2022-11-24T04:49:52.997Z,16.13
2022-11-24T04:52:23.373Z,14.60
2022-11-24T04:54:50.661Z,16.38
2022-11-24T04:57:20.280Z,17.38
2022-11-24T04:59:48.677Z,18.27
2022-11-24T05:02:15.969Z,16.35
2022-11-24T05:04:43.232Z,22.13
2022-11-24T05:07:19.690Z,20.75
2022-11-24T05:10:06.337Z,16.48
2022-11-24T05:12:33.477Z,24.05
2022-11-24T05:15:03.165Z,24.83
2022-11-24T05:17:33.119Z,21.75
2022-11-24T05:20:00.412Z,22.75
2022-11-24T05:22:29.437Z,27.05
2022-11-24T05:24:56.682Z,21.23
2022-11-24T05:27:23.953Z,21.88
2022-11-24T05:29:51.047Z,22.55
2022-11-24T05:32:18.185Z,14.65
2022-11-24T05:34:45.394Z,14.73
2022-11-24T05:37:12.466Z,16.55
2022-11-24T05:39:39.581Z,58.40
2022-11-24T05:42:26.218Z,27.35
2022-11-24T05:44:53.722Z,18.80
2022-11-24T05:47:21.971Z,17.98
2022-11-24T05:49:49.405Z,14.68
2022-11-24T05:52:16.807Z,19.02
2022-11-24T05:54:43.969Z,17.85
2022-11-24T05:57:11.093Z,17.70
2022-11-24T05:59:38.531Z,16.92
2022-11-24T06:02:05.743Z,18.23
2022-11-24T06:04:33.298Z,19.52
2022-11-24T06:07:00.712Z,16.60
2022-11-24T06:09:27.961Z,18.27
2022-11-24T06:11:55.483Z,12.95
2022-11-24T06:14:22.866Z,14.38
2022-11-24T06:16:50.114Z,12.05
2022-11-24T06:19:17.293Z,9.85
2022-11-24T06:21:44.386Z,11.48
2022-11-24T06:24:11.614Z,11.93
2022-11-24T06:26:38.779Z,16.50
2022-11-24T06:29:06.219Z,19.40
2022-11-24T06:31:33.604Z,25.63
2022-11-24T06:34:01.124Z,21.02
2022-11-24T06:36:28.298Z,23.67
2022-11-24T06:38:55.591Z,16.88
2022-11-24T06:41:22.786Z,12.40
2022-11-24T06:43:49.977Z,15.82
2022-11-24T06:46:17.140Z,17.83
2022-11-24T06:48:44.371Z,12.82
2022-11-24T06:51:12.802Z,16.08
2022-11-24T06:53:40.824Z,16.03
2022-11-24T06:56:16.281Z,20.60
2022-11-24T06:58:47.807Z,26.48
2022-11-24T07:01:21.664Z,21.20
2022-11-24T07:03:49.949Z,20.42
2022-11-24T07:06:18.855Z,17.35
2022-11-24T07:08:46.665Z,18.13
2022-11-24T07:11:21.175Z,13.25
2022-11-24T07:13:54.982Z,15.57
2022-11-24T07:16:26.899Z,13.50
2022-11-24T07:18:54.985Z,14.13
2022-11-24T07:21:24.147Z,15.35
2022-11-24T07:23:56.697Z,10.45
2022-11-24T07:26:25.627Z,9.25
2022-11-24T07:28:53.071Z,7.45
2022-11-24T07:31:24.340Z,8.65
2022-11-24T07:33:53.899Z,7.38
2022-11-24T07:38:49.213Z,8.90
2022-11-24T07:41:19.129Z,8.45
2022-11-24T07:43:47.429Z,9.57
2022-11-24T07:46:18.488Z,8.27
2022-11-24T07:48:46.220Z,8.15
2022-11-24T07:51:14.217Z,9.23
2022-11-24T07:53:41.440Z,10.45
2022-11-24T07:56:09.487Z,9.93
2022-11-24T07:58:37.708Z,10.02
2022-11-24T08:01:15.195Z,9.10
2022-11-24T08:03:44.114Z,9.63
2022-11-24T08:06:25.166Z,8.98
2022-11-24T08:08:55.597Z,9.02
2022-11-24T08:11:23.450Z,7.90
2022-11-24T08:13:50.765Z,8.50
2022-11-24T08:16:19.724Z,9.13
2022-11-24T08:18:52.515Z,10.23
2022-11-24T08:21:22.448Z,9.70
2022-11-24T08:23:53.177Z,9.90
2022-11-24T08:26:20.376Z,8.88
2022-11-24T08:28:52.133Z,7.40
2022-11-24T08:31:19.395Z,7.18
2022-11-24T08:33:47.153Z,7.60
2022-11-24T08:36:18.232Z,8.82
2022-11-24T08:38:46.230Z,6.18
2022-11-24T08:41:16.297Z,6.20
2022-11-24T08:43:43.768Z,8.32
2022-11-24T08:46:16.378Z,5.97
2022-11-24T08:48:47.613Z,5.68
2022-11-24T08:51:19.008Z,5.43
2022-11-24T08:53:46.152Z,5.63
2022-11-24T08:56:13.754Z,6.32
2022-11-24T08:58:41.687Z,6.85
2022-11-24T09:01:17.356Z,6.15
2022-11-24T09:03:50.701Z,10.15
2022-11-24T09:06:24.942Z,10.02
2022-11-24T09:08:54.837Z,9.15
2022-11-24T09:11:23.475Z,11.50
2022-11-24T09:13:51.278Z,12.98
2022-11-24T09:16:26.436Z,14.63
2022-11-24T09:19:03.357Z,13.70
2022-11-24T09:21:33.778Z,10.70
2022-11-24T09:24:01.169Z,8.32
2022-11-24T09:26:32.046Z,8.55
2022-11-24T09:29:01.443Z,10.07
2022-11-24T09:31:33.836Z,9.02
2022-11-24T09:34:10.544Z,8.23
2022-11-24T09:36:38.102Z,8.60
2022-11-24T09:39:05.772Z,9.20
2022-11-24T09:41:55.815Z,14.77
2022-11-24T09:44:48.376Z,9.88
2022-11-24T09:47:32.617Z,10.15
2022-11-24T09:50:12.523Z,9.52
2022-11-24T09:53:14.932Z,8.13
2022-11-24T09:55:48.240Z,7.15
2022-11-24T09:58:36.553Z,8.23
2022-11-24T10:01:25.862Z,7.70
2022-11-24T10:03:54.305Z,8.90
2022-11-24T10:06:37.724Z,8.65
2022-11-24T10:09:32.249Z,7.95
2022-11-24T10:12:53.334Z,9.88
2022-11-24T10:15:57.968Z,10.57
2022-11-24T10:18:58.886Z,10.23
2022-11-24T10:21:53.535Z,10.38
2022-11-24T10:24:49.014Z,9.27
2022-11-24T10:27:19.714Z,9.57
2022-11-24T10:29:51.226Z,8.35
2022-11-24T10:32:30.946Z,9.38
2022-11-24T10:35:19.294Z,9.93
2022-11-24T10:38:20.500Z,9.27
2022-11-24T10:42:03.398Z,11.02
2022-11-24T10:44:30.601Z,9.93
2022-11-24T10:46:58.122Z,10.82
2022-11-24T10:49:30.240Z,11.25
2022-11-24T10:52:13.464Z,10.68
2022-11-24T10:55:02.112Z,10.15
2022-11-24T10:57:35.933Z,9.63
2022-11-24T11:00:22.935Z,8.00
2022-11-24T11:03:10.823Z,8.38
2022-11-24T11:06:03.831Z,10.73
2022-11-24T11:08:32.079Z,10.57
2022-11-24T11:11:28.615Z,10.57
2022-11-24T11:14:04.321Z,15.43
2022-11-24T11:16:53.333Z,11.35
2022-11-24T11:20:00.090Z,13.00
2022-11-24T11:22:31.740Z,12.38
2022-11-24T11:25:11.288Z,18.85
2022-11-24T11:27:41.021Z,16.55
2022-11-24T11:36:15.894Z,15.73
2022-11-24T11:38:44.428Z,22.60
2022-11-24T11:41:22.004Z,23.92
2022-11-24T11:44:01.447Z,15.73
2022-11-24T11:46:31.072Z,19.50
2022-11-24T11:48:58.504Z,19.27
2022-11-24T11:52:04.659Z,18.08
2022-11-24T11:55:16.931Z,18.92
2022-11-24T11:58:17.629Z,21.30
2022-11-24T12:01:23.285Z,16.55
2022-11-24T12:03:58.252Z,12.18
2022-11-24T12:06:46.755Z,17.95
2022-11-24T12:09:55.227Z,15.82
2022-11-24T12:12:55.144Z,16.47
2022-11-24T12:15:47.171Z,22.27
2022-11-24T12:19:03.967Z,19.17
2022-11-24T12:22:07.026Z,19.00
2022-11-24T12:25:09.578Z,15.10
2022-11-24T12:28:13.712Z,17.42
2022-11-24T12:31:31.997Z,19.20
2022-11-24T12:34:21.647Z,19.90
2022-11-24T12:37:21.259Z,18.05
2022-11-24T12:40:27.476Z,16.17
2022-11-24T12:43:31.908Z,16.10
2022-11-24T12:46:36.112Z,17.33
2022-11-24T12:49:31.029Z,13.93
2022-11-24T12:52:23.917Z,16.35
2022-11-24T12:54:51.916Z,12.68
2022-11-24T12:57:41.251Z,15.90
2022-11-24T13:00:40.149Z,13.02
2022-11-24T13:03:36.480Z,10.27
2022-11-24T13:06:22.334Z,9.82
2022-11-24T13:08:52.122Z,11.90
2022-11-24T13:11:22.360Z,12.75
2022-11-24T13:14:01.720Z,9.43
2022-11-24T13:16:36.279Z,6.45
2022-11-24T13:19:20.272Z,8.23
2022-11-24T13:22:03.232Z,4.38
2022-11-24T13:24:39.350Z,2.70
2022-11-24T13:27:16.102Z,2.78
2022-11-24T13:29:49.253Z,2.42
2022-11-24T13:32:20.453Z,3.60
2022-11-24T13:34:54.327Z,2.90
2022-11-24T13:37:34.820Z,1.70
2022-11-24T13:40:22.807Z,2.75
2022-11-24T13:42:56.962Z,4.05
2022-11-24T13:45:39.459Z,3.03
2022-11-24T13:48:18.821Z,3.03
2022-11-24T13:50:55.366Z,3.08
2022-11-24T13:53:44.646Z,4.13
2022-11-24T13:56:11.693Z,3.90
2022-11-24T13:58:43.728Z,4.13
2022-11-24T14:01:28.062Z,4.03
2022-11-24T14:04:32.568Z,4.47
2022-11-24T14:07:10.567Z,3.80
2022-11-24T14:09:45.060Z,6.90
2022-11-24T14:12:25.486Z,6.05
2022-11-24T14:15:12.123Z,8.02
2022-11-24T14:17:39.246Z,11.07
2022-11-24T14:20:22.739Z,9.57
2022-11-24T14:22:50.529Z,7.82
2022-11-24T14:25:30.920Z,14.57
2022-11-24T14:27:59.750Z,9.88
2022-11-24T14:30:27.173Z,16.27
2022-11-24T14:33:03.425Z,12.10
2022-11-24T14:35:34.031Z,13.95
2022-11-24T14:38:03.782Z,9.85
2022-11-24T14:40:50.850Z,11.18
2022-11-24T14:43:29.768Z,7.70
2022-11-24T14:46:09.179Z,7.82
2022-11-24T14:51:29.912Z,10.85
2022-11-24T14:54:13.121Z,13.50
2022-11-24T14:56:40.506Z,13.23
2022-11-24T14:59:26.457Z,24.92
2022-11-24T15:01:54.347Z,15.90
2022-11-24T15:07:28.561Z,10.70
2022-11-24T15:09:58.276Z,11.90
2022-11-24T15:12:47.682Z,15.73
2022-11-24T15:15:14.735Z,16.25
2022-11-24T15:17:49.558Z,13.38
2022-11-24T15:20:26.158Z,17.98
2022-11-24T15:23:15.574Z,17.88
2022-11-24T15:28:10.009Z,15.80
2022-11-24T15:30:37.835Z,19.63
2022-11-24T15:33:15.317Z,20.10
2022-11-24T15:35:43.879Z,22.13
2022-11-24T15:38:11.496Z,22.10
2022-11-24T15:40:41.550Z,16.50
2022-11-24T15:43:40.211Z,15.45
2022-11-24T15:46:08.906Z,19.23
2022-11-24T15:48:36.095Z,17.50
2022-11-24T15:51:12.710Z,19.20
2022-11-24T15:53:47.643Z,17.08
2022-11-24T15:56:37.097Z,14.57
2022-11-24T16:01:33.459Z,15.48
2022-11-24T16:04:01.436Z,15.18
2022-11-24T16:06:28.656Z,12.00
2022-11-24T16:08:57.522Z,16.23
2022-11-24T16:11:25.260Z,13.05
2022-11-24T16:13:54.017Z,11.82
2022-11-24T16:16:24.081Z,11.27
2022-11-24T16:18:51.330Z,10.05
2022-11-24T16:21:18.468Z,9.70
2022-11-24T16:23:46.068Z,8.35
2022-11-24T16:26:13.363Z,10.02
2022-11-24T16:28:41.461Z,10.68
2022-11-24T16:31:08.619Z,9.20
2022-11-24T16:33:39.935Z,9.48
2022-11-24T16:36:07.936Z,8.82
2022-11-24T16:38:35.096Z,8.70
2022-11-24T16:41:02.295Z,11.27
2022-11-24T16:43:29.573Z,9.02
2022-11-24T16:46:21.001Z,10.27
2022-11-24T16:48:55.171Z,12.38
2022-11-24T16:51:23.924Z,11.52
2022-11-24T16:53:58.514Z,9.48
2022-11-24T16:56:27.614Z,8.35
2022-11-24T16:58:55.158Z,8.50
2022-11-24T17:01:23.124Z,7.78
2022-11-24T17:03:50.345Z,10.45
2022-11-24T17:06:17.727Z,11.93
2022-11-24T17:08:46.656Z,9.43
2022-11-24T17:11:23.892Z,8.25
2022-11-24T17:13:51.156Z,9.45
2022-11-24T17:16:22.040Z,9.35
2022-11-24T17:18:50.319Z,10.05
2022-11-24T17:21:24.198Z,9.30
2022-11-24T17:23:56.958Z,9.82
2022-11-24T17:26:24.731Z,8.35
2022-11-24T17:28:52.851Z,8.98
2022-11-24T17:31:23.291Z,8.70
2022-11-24T17:33:53.209Z,8.27
2022-11-24T17:36:20.864Z,12.05
2022-11-24T17:38:51.033Z,12.68
2022-11-24T17:41:19.138Z,13.98
2022-11-24T17:43:55.140Z,14.05
2022-11-24T17:46:23.877Z,13.00
2022-11-24T17:48:51.261Z,15.45
2022-11-24T17:51:21.796Z,14.55
2022-11-24T17:53:51.627Z,12.35
2022-11-24T17:56:25.200Z,13.20
2022-11-24T17:58:58.802Z,22.08
2022-11-24T18:01:29.557Z,15.70
2022-11-24T18:03:57.738Z,20.52
2022-11-24T18:06:25.604Z,22.75
2022-11-24T18:08:55.672Z,19.95
2022-11-24T18:11:31.677Z,25.10
2022-11-24T18:14:04.192Z,26.48
2022-11-24T18:16:33.816Z,23.55
2022-11-24T18:21:43.082Z,23.80
2022-11-24T18:24:11.947Z,21.92
2022-11-24T18:26:41.518Z,19.67
2022-11-24T18:29:10.526Z,20.48
2022-11-24T18:31:38.267Z,26.10
2022-11-24T18:34:06.431Z,27.00
2022-11-24T18:36:34.447Z,29.30
2022-11-24T18:39:07.888Z,29.92
2022-11-24T18:41:35.946Z,26.65
2022-11-24T18:44:07.086Z,26.42
2022-11-24T18:46:34.580Z,22.77
2022-11-24T18:49:02.083Z,22.33
2022-11-24T18:51:29.671Z,23.27
2022-11-24T18:54:02.353Z,29.17
2022-11-24T18:56:29.930Z,27.45
2022-11-24T18:58:57.707Z,30.35
2022-11-24T19:01:28.096Z,27.67
2022-11-24T19:03:58.356Z,29.73
2022-11-24T19:06:35.527Z,29.63
2022-11-24T19:09:11.365Z,26.80
2022-11-24T19:11:41.916Z,21.75
2022-11-24T19:14:13.276Z,20.40
2022-11-24T19:16:42.250Z,18.83
2022-11-24T19:19:12.018Z,13.93
2022-11-24T19:24:12.723Z,13.00
2022-11-24T19:26:40.559Z,13.25
2022-11-24T19:29:08.888Z,11.20
2022-11-24T19:31:40.049Z,14.18
2022-11-24T19:34:07.446Z,12.25
2022-11-24T19:36:35.486Z,11.60
2022-11-24T19:39:04.362Z,13.68
2022-11-24T19:41:32.358Z,16.52
2022-11-24T19:44:00.022Z,20.40
2022-11-24T19:46:29.098Z,19.50
2022-11-24T19:49:00.750Z,21.70
2022-11-24T19:51:33.443Z,19.55
2022-11-24T19:54:01.822Z,21.13
2022-11-24T19:56:33.729Z,22.52
2022-11-24T19:59:03.433Z,19.73
2022-11-24T20:04:11.881Z,18.27
2022-11-24T20:06:42.824Z,19.60
2022-11-24T20:09:12.454Z,23.23
2022-11-24T20:14:10.328Z,20.45
2022-11-24T20:16:37.736Z,19.75
2022-11-24T20:19:10.105Z,20.88
2022-11-24T20:21:39.192Z,22.67
2022-11-24T20:24:17.500Z,18.70
2022-11-24T20:26:57.593Z,19.58
2022-11-24T20:29:25.552Z,18.23
2022-11-24T20:31:55.343Z,21.38
2022-11-24T20:34:23.725Z,19.42
2022-11-24T20:36:54.547Z,18.20
2022-11-24T20:39:25.856Z,16.60
2022-11-24T20:41:55.162Z,16.90
2022-11-24T20:44:25.927Z,17.25
2022-11-24T20:46:56.206Z,15.20
2022-11-24T20:49:24.556Z,17.23
2022-11-24T20:51:56.558Z,15.40
2022-11-24T20:54:24.132Z,14.52
2022-11-24T20:56:51.556Z,16.23
2022-11-24T20:59:22.774Z,14.18
2022-11-24T21:01:51.675Z,37.05
2022-11-24T21:04:22.637Z,30.27
2022-11-24T21:06:50.210Z,20.17
2022-11-24T21:09:18.275Z,19.85
2022-11-24T21:11:45.730Z,16.48
2022-11-24T21:14:13.507Z,18.45
2022-11-24T21:16:42.404Z,16.55
2022-11-24T21:19:13.309Z,14.57
2022-11-24T21:21:41.993Z,15.35
2022-11-24T21:24:15.976Z,17.93
2022-11-24T21:26:46.925Z,16.60
2022-11-24T21:29:17.269Z,15.90
2022-11-24T21:31:44.676Z,14.63
2022-11-24T21:34:17.796Z,13.60
2022-11-24T21:36:45.437Z,11.95
2022-11-24T21:39:14.276Z,12.10
2022-11-24T21:41:42.903Z,10.35
2022-11-24T21:44:13.776Z,11.02
2022-11-24T21:46:46.169Z,8.57
2022-11-24T21:49:16.804Z,7.13
2022-11-24T21:51:44.051Z,7.40
2022-11-24T21:54:11.280Z,5.78
2022-11-24T21:56:38.436Z,6.25
2022-11-24T21:59:05.620Z,6.28
2022-11-24T22:01:32.796Z,5.97
2022-11-24T22:04:00.006Z,5.78
2022-11-24T22:06:27.383Z,5.55
2022-11-24T22:08:54.988Z,6.80
2022-11-24T22:11:24.578Z,5.78
2022-11-24T22:13:52.416Z,6.22
2022-11-24T22:16:22.579Z,7.20
2022-11-24T22:18:50.490Z,7.70
2022-11-24T22:21:29.368Z,6.95
2022-11-24T22:23:56.670Z,5.88
2022-11-24T22:26:24.995Z,4.90
2022-11-24T22:28:53.905Z,6.32
2022-11-24T22:31:27.419Z,5.20
2022-11-24T22:33:56.017Z,6.40
2022-11-24T22:36:27.824Z,4.85
2022-11-24T22:39:03.498Z,4.97
2022-11-24T22:41:34.183Z,5.25
2022-11-24T22:44:01.443Z,5.65
2022-11-24T22:46:30.846Z,5.43
2022-11-24T22:49:00.450Z,5.05
2022-11-24T22:51:34.196Z,5.15
2022-11-24T22:54:03.824Z,4.35
2022-11-24T22:56:32.923Z,4.30
2022-11-24T22:59:01.421Z,3.83
2022-11-24T23:01:30.482Z,3.15
2022-11-24T23:03:57.749Z,2.85
2022-11-24T23:06:28.122Z,3.00
2022-11-24T23:08:56.720Z,2.15
2022-11-24T23:11:37.946Z,2.87
2022-11-24T23:14:10.588Z,3.20
2022-11-24T23:16:37.874Z,2.85
2022-11-24T23:19:05.088Z,2.40
2022-11-24T23:21:35.610Z,2.00
2022-11-24T23:24:04.971Z,2.30
2022-11-24T23:26:36.859Z,2.35
2022-11-24T23:29:04.727Z,2.63
2022-11-24T23:31:32.309Z,2.40
2022-11-24T23:34:02.551Z,2.05
2022-11-24T23:36:31.205Z,3.17
2022-11-24T23:39:07.878Z,2.73
2022-11-24T23:41:35.334Z,3.05
2022-11-24T23:44:02.742Z,2.50
2022-11-24T23:46:30.509Z,1.92
2022-11-24T23:48:58.255Z,2.38
2022-11-24T23:51:29.593Z,2.03
2022-11-24T23:53:57.725Z,1.65
2022-11-24T23:56:31.888Z,1.25
2022-11-24T23:59:01.239Z,2.10
